Time;durP1;ratioP1;P1;durP2;ratioP2;P2;SDS_P1;SDS_P2;PMS_P1;PMS_P2;Temp;Humidity;BMP_temperature;BMP_pressure;BME280_temperature;BME280_humidity;BME280_pressure;Samples;Min_cycle;Max_cycle;Signal;HPM_P1;HPM_P2
2023/03/25 00:01:18;;;;;;;10.27;6.37;;;10.70;99.90;;;;;;4956523;28;20216;-75
2023/03/25 00:03:49;;;;;;;10.57;6.57;;;10.70;99.90;;;;;;4939240;29;20205;-74
2023/03/25 00:06:16;;;;;;;10.23;6.67;;;10.70;99.90;;;;;;4972448;28;20228;-76
2023/03/25 00:08:43;;;;;;;10.90;6.93;;;10.60;99.90;;;;;;4993869;28;20255;-74
2023/03/25 00:11:10;;;;;;;12.07;7.03;;;10.60;99.90;;;;;;4977131;28;20232;-73
2023/03/25 00:13:37;;;;;;;12.20;7.43;;;10.60;99.90;;;;;;4977383;28;20204;-73
2023/03/25 00:16:05;;;;;;;13.13;7.13;;;10.60;99.90;;;;;;4993547;28;20208;-77
2023/03/25 00:18:32;;;;;;;12.33;6.83;;;10.50;99.90;;;;;;4977411;28;20197;-75
2023/03/25 00:21:01;;;;;;;12.67;6.50;;;10.50;99.90;;;;;;4993527;28;20201;-77
2023/03/25 00:23:30;;;;;;;10.47;6.57;;;10.50;99.90;;;;;;4994585;28;20590;-73
2023/03/25 00:26:00;;;;;;;10.23;6.40;;;10.40;99.90;;;;;;4977179;28;20344;-75
2023/03/25 00:28:29;;;;;;;11.13;6.60;;;10.40;99.90;;;;;;4994527;28;20662;-74
2023/03/25 00:31:10;;;;;;;9.20;6.30;;;10.40;99.90;;;;;;4961011;28;20231;-73
2023/03/25 00:33:40;;;;;;;10.13;6.20;;;10.30;99.90;;;;;;4977132;28;20207;-76
2023/03/25 00:36:07;;;;;;;8.70;5.70;;;10.30;99.90;;;;;;4977044;28;20223;-74
2023/03/25 00:38:36;;;;;;;10.50;6.30;;;10.30;99.90;;;;;;4994285;28;20236;-77
2023/03/25 00:41:21;;;;;;;10.30;6.43;;;10.30;99.90;;;;;;4977306;28;20196;-75
2023/03/25 00:43:51;;;;;;;11.67;7.10;;;10.30;99.90;;;;;;4961000;28;20220;-75
2023/03/25 00:46:18;;;;;;;10.47;6.80;;;10.30;99.90;;;;;;4977025;28;20201;-78
2023/03/25 00:48:45;;;;;;;11.73;6.93;;;10.20;99.90;;;;;;4977043;28;20201;-75
2023/03/25 00:51:13;;;;;;;9.87;6.27;;;10.40;99.90;;;;;;4976633;28;20705;-76
2023/03/25 00:53:40;;;;;;;9.60;5.87;;;10.30;99.90;;;;;;4976833;28;20299;-73
2023/03/25 00:56:07;;;;;;;8.77;5.73;;;10.20;99.90;;;;;;4994077;28;20201;-73
2023/03/25 00:58:34;;;;;;;9.17;5.90;;;10.20;99.90;;;;;;4976460;28;20205;-74
2023/03/25 01:01:11;;;;;;;8.70;6.10;;;10.20;99.90;;;;;;4976584;28;20666;-73
2023/03/25 01:03:39;;;;;;;9.73;5.87;;;10.20;99.90;;;;;;4976701;28;20287;-73
2023/03/25 01:06:12;;;;;;;9.00;5.90;;;10.10;99.90;;;;;;4976185;28;20267;-73
2023/03/25 01:08:40;;;;;;;11.03;6.07;;;10.20;99.90;;;;;;4976183;28;20201;-73
2023/03/25 01:11:41;;;;;;;10.23;5.90;;;10.10;99.90;;;;;;4976316;28;20314;-75
2023/03/25 01:14:15;;;;;;;9.50;6.30;;;10.10;99.90;;;;;;4976406;28;20229;-74
2023/03/25 01:16:43;;;;;;;13.53;6.47;;;10.10;99.90;;;;;;4993942;28;20196;-75
2023/03/25 01:19:10;;;;;;;11.53;6.30;;;10.10;99.90;;;;;;4976520;28;20228;-76
2023/03/25 01:21:38;;;;;;;11.40;6.30;;;10.10;99.90;;;;;;4976165;28;20639;-75
2023/03/25 01:24:07;;;;;;;11.47;6.87;;;10.00;99.90;;;;;;4993946;28;20538;-74
2023/03/25 01:26:34;;;;;;;11.53;6.73;;;10.00;99.90;;;;;;4975997;28;20678;-74
2023/03/25 01:29:01;;;;;;;11.77;7.10;;;10.00;99.90;;;;;;4976343;28;20197;-74
2023/03/25 01:31:29;;;;;;;10.73;6.50;;;10.00;99.90;;;;;;4976058;28;20221;-74
2023/03/25 01:33:57;;;;;;;11.63;6.73;;;9.90;99.90;;;;;;4976574;28;20232;-73
2023/03/25 01:36:28;;;;;;;11.53;6.67;;;9.80;99.90;;;;;;4976119;28;20204;-77
2023/03/25 01:38:57;;;;;;;9.90;6.97;;;9.80;99.90;;;;;;4993351;28;20296;-75
2023/03/25 01:41:26;;;;;;;11.57;6.40;;;9.70;99.90;;;;;;4975862;28;20197;-77
2023/03/25 01:44:17;;;;;;;14.40;6.93;;;9.70;99.90;;;;;;4975414;28;20207;-74
2023/03/25 01:46:45;;;;;;;11.87;7.00;;;9.60;99.90;;;;;;4975835;28;20204;-75
2023/03/25 01:49:22;;;;;;;9.33;6.23;;;9.60;99.90;;;;;;4975899;28;20678;-76
2023/03/25 01:52:03;;;;;;;10.67;6.47;;;9.60;99.90;;;;;;4993569;28;20220;-75
2023/03/25 01:54:32;;;;;;;12.40;6.90;;;9.60;99.90;;;;;;4975430;28;20300;-75
2023/03/25 01:56:59;;;;;;;11.33;6.50;;;9.50;99.90;;;;;;4993065;28;20239;-73
2023/03/25 01:59:28;;;;;;;12.70;7.20;;;9.50;99.90;;;;;;4975504;28;20193;-76
2023/03/25 02:01:57;;;;;;;13.20;6.97;;;9.50;99.90;;;;;;4993119;28;20280;-77
2023/03/25 02:05:01;;;;;;;11.20;6.77;;;9.40;99.90;;;;;;4975735;28;20212;-76
2023/03/25 02:07:31;;;;;;;12.57;6.73;;;9.40;99.90;;;;;;4975365;28;20331;-75
2023/03/25 02:10:01;;;;;;;11.60;6.77;;;9.40;99.90;;;;;;4975522;28;20614;-77
2023/03/25 02:12:28;;;;;;;12.63;6.83;;;9.40;99.90;;;;;;4975325;28;20230;-74
2023/03/25 02:14:59;;;;;;;13.27;7.43;;;9.30;99.90;;;;;;4992984;28;20211;-76
2023/03/25 02:17:52;;;;;;;11.00;7.33;;;9.20;99.90;;;;;;4992815;28;20200;-76
2023/03/25 02:20:22;;;;;;;11.17;6.93;;;9.30;99.90;;;;;;4992866;28;20514;-74
2023/03/25 02:23:13;;;;;;;12.03;7.47;;;9.10;99.90;;;;;;4992771;28;20203;-80
2023/03/25 02:25:53;;;;;;;13.07;7.23;;;9.10;99.90;;;;;;4975138;28;20200;-73
2023/03/25 02:28:34;;;;;;;16.13;7.93;;;9.00;99.90;;;;;;4975240;28;20639;-73
2023/03/25 02:31:43;;;;;;;12.63;7.80;;;9.00;99.90;;;;;;4975534;28;20674;-78
2023/03/25 02:34:16;;;;;;;11.63;7.47;;;8.90;99.90;;;;;;4982544;28;20334;-74
2023/03/25 02:37:10;;;;;;;12.00;6.97;;;8.90;99.90;;;;;;4975416;28;20204;-78
2023/03/25 02:39:54;;;;;;;12.53;7.67;;;8.90;99.90;;;;;;4959647;28;20192;-78
2023/03/25 02:42:21;;;;;;;12.50;7.30;;;8.90;99.90;;;;;;4993154;28;20601;-76
2023/03/25 02:45:06;;;;;;;11.00;7.30;;;8.80;99.90;;;;;;4975275;28;20204;-78
2023/03/25 02:47:46;;;;;;;12.63;7.50;;;8.80;99.90;;;;;;4991427;28;20758;-78
2023/03/25 02:50:20;;;;;;;12.80;7.50;;;8.80;99.90;;;;;;4959190;28;20700;-78
2023/03/25 02:52:50;;;;;;;13.90;7.50;;;8.80;99.90;;;;;;4975240;28;20213;-75
2023/03/25 02:55:20;;;;;;;13.83;7.73;;;8.80;99.90;;;;;;4993263;28;20208;-74
2023/03/25 02:57:51;;;;;;;13.10;7.37;;;8.80;99.90;;;;;;4978904;28;20212;-77
2023/03/25 03:00:22;;;;;;;13.70;7.77;;;8.70;99.90;;;;;;4996212;28;20188;-75
2023/03/25 03:03:02;;;;;;;11.60;6.83;;;8.80;99.90;;;;;;4996011;28;20208;-79
2023/03/25 03:05:32;;;;;;;14.20;7.80;;;8.90;99.90;;;;;;4996168;28;20279;-78
2023/03/25 03:08:20;;;;;;;12.27;7.53;;;8.70;99.90;;;;;;4978587;28;20642;-78
2023/03/25 03:11:08;;;;;;;13.17;7.33;;;8.70;99.90;;;;;;4978190;28;20220;-77
2023/03/25 03:14:13;;;;;;;16.57;7.97;;;8.60;99.90;;;;;;4978436;28;20204;-75
2023/03/25 03:16:57;;;;;;;14.90;7.80;;;8.60;99.90;;;;;;4978305;28;20207;-75
2023/03/25 03:19:24;;;;;;;12.53;8.17;;;8.50;99.90;;;;;;4978526;28;20291;-75
2023/03/25 03:22:13;;;;;;;16.37;7.93;;;8.50;99.90;;;;;;4995843;28;20228;-74
2023/03/25 03:25:16;;;;;;;14.30;8.13;;;8.40;99.90;;;;;;4980527;28;20204;-75
2023/03/25 03:27:55;;;;;;;12.67;7.90;;;8.50;99.90;;;;;;4978078;28;20228;-76
2023/03/25 03:30:37;;;;;;;16.67;8.80;;;8.50;99.90;;;;;;4994675;28;20204;-78
2023/03/25 03:33:25;;;;;;;15.37;8.33;;;8.40;99.90;;;;;;4978490;28;20228;-75
2023/03/25 03:35:57;;;;;;;18.33;8.67;;;8.40;99.90;;;;;;4978211;28;20210;-74
2023/03/25 03:38:58;;;;;;;14.10;8.43;;;8.40;99.90;;;;;;4978345;28;20214;-75
2023/03/25 03:41:36;;;;;;;15.10;8.33;;;8.40;99.90;;;;;;4995273;28;20214;-75
2023/03/25 03:44:08;;;;;;;14.53;7.90;;;8.40;99.90;;;;;;4978046;28;20200;-79
2023/03/25 03:47:03;;;;;;;13.37;8.10;;;8.30;99.90;;;;;;4977708;28;20192;-75
2023/03/25 03:49:37;;;;;;;16.90;8.63;;;8.30;99.90;;;;;;4995443;28;20196;-79
2023/03/25 03:52:13;;;;;;;16.03;9.00;;;8.30;99.90;;;;;;4978012;28;20243;-79
2023/03/25 03:54:55;;;;;;;14.57;8.87;;;8.30;99.90;;;;;;4977892;28;20195;-79
2023/03/25 03:57:25;;;;;;;15.10;8.97;;;8.30;99.90;;;;;;4977896;28;20310;-81
2023/03/25 04:00:08;;;;;;;15.20;8.40;;;8.30;99.90;;;;;;4977809;28;20208;-74
2023/03/25 04:02:59;;;;;;;15.73;8.50;;;8.30;99.90;;;;;;4995738;28;20291;-78
2023/03/25 04:05:29;;;;;;;17.57;9.53;;;8.20;99.90;;;;;;4977219;28;20196;-75
2023/03/25 04:08:10;;;;;;;16.67;9.40;;;8.20;99.90;;;;;;4977816;28;20207;-78
2023/03/25 04:11:04;;;;;;;16.23;9.80;;;8.10;99.90;;;;;;4977683;28;20287;-78
2023/03/25 04:13:48;;;;;;;17.47;10.20;;;8.10;99.90;;;;;;4994930;28;20194;-78
2023/03/25 04:16:15;;;;;;;16.30;9.73;;;8.10;99.90;;;;;;4994847;28;20274;-74
2023/03/25 04:18:46;;;;;;;17.43;10.30;;;8.10;99.90;;;;;;4994836;28;20657;-75
2023/03/25 04:21:14;;;;;;;21.83;10.87;;;8.00;99.90;;;;;;4977419;28;20192;-79
2023/03/25 04:23:41;;;;;;;17.80;10.63;;;8.00;99.90;;;;;;4994821;28;20193;-79
2023/03/25 04:26:08;;;;;;;17.60;10.30;;;8.00;99.90;;;;;;4977499;28;20200;-76
2023/03/25 04:28:35;;;;;;;18.03;10.93;;;8.00;99.90;;;;;;4993435;28;20201;-77
2023/03/25 04:31:05;;;;;;;17.37;10.47;;;8.00;99.90;;;;;;4977260;28;20225;-80
2023/03/25 04:33:32;;;;;;;17.27;11.00;;;8.00;99.90;;;;;;4976927;28;20274;-75
2023/03/25 04:36:00;;;;;;;21.60;10.87;;;8.00;99.90;;;;;;4994527;28;20212;-77
2023/03/25 04:38:28;;;;;;;21.03;11.47;;;8.00;99.90;;;;;;4976922;28;20224;-75
2023/03/25 04:40:55;;;;;;;20.07;11.13;;;8.10;99.90;;;;;;4977062;28;20295;-79
2023/03/25 04:43:22;;;;;;;20.70;10.83;;;8.10;99.90;;;;;;4977133;28;20550;-76
2023/03/25 04:45:52;;;;;;;17.67;10.43;;;8.10;99.90;;;;;;4993260;28;20208;-78
2023/03/25 04:48:30;;;;;;;20.93;11.23;;;8.10;99.90;;;;;;4976862;28;20196;-79
2023/03/25 04:51:00;;;;;;;21.80;11.23;;;8.10;99.90;;;;;;4994389;28;20291;-78
2023/03/25 04:53:28;;;;;;;18.73;11.47;;;8.10;99.90;;;;;;4977075;28;20318;-75
2023/03/25 04:55:56;;;;;;;18.50;10.77;;;8.10;99.90;;;;;;4976429;28;20208;-80
2023/03/25 04:58:23;;;;;;;20.73;11.07;;;8.10;99.90;;;;;;4976750;28;20196;-76
2023/03/25 05:00:51;;;;;;;17.63;10.80;;;8.10;99.90;;;;;;4976711;28;20193;-76
2023/03/25 05:03:24;;;;;;;19.53;11.40;;;8.20;99.90;;;;;;4976689;28;20212;-78
2023/03/25 05:05:52;;;;;;;19.47;11.03;;;8.10;99.90;;;;;;4960434;28;20663;-80
2023/03/25 05:08:22;;;;;;;21.03;11.70;;;8.10;99.90;;;;;;4976498;28;20254;-78
2023/03/25 05:10:51;;;;;;;22.00;11.87;;;8.20;99.90;;;;;;4976322;28;20291;-78
2023/03/25 05:13:19;;;;;;;20.17;10.90;;;8.20;99.90;;;;;;4976677;28;20264;-78
2023/03/25 05:15:46;;;;;;;19.07;11.47;;;8.20;99.90;;;;;;4993921;28;20279;-77
2023/03/25 05:18:15;;;;;;;19.67;11.70;;;8.20;99.90;;;;;;4975698;28;20212;-78
2023/03/25 05:20:45;;;;;;;19.67;11.40;;;8.20;99.90;;;;;;4994145;28;20192;-74
2023/03/25 05:23:17;;;;;;;19.80;11.67;;;8.30;99.90;;;;;;4976467;28;20199;-73
2023/03/25 05:25:49;;;;;;;22.80;12.27;;;8.30;99.90;;;;;;4976299;28;20204;-73
2023/03/25 05:28:18;;;;;;;22.40;12.60;;;8.40;99.90;;;;;;4993746;28;20209;-73
2023/03/25 05:30:46;;;;;;;20.57;12.07;;;8.30;99.90;;;;;;4976141;28;20301;-73
2023/03/25 05:33:15;;;;;;;20.80;12.17;;;8.30;99.90;;;;;;4976014;28;20220;-73
2023/03/25 05:35:43;;;;;;;19.03;11.53;;;8.30;99.90;;;;;;4976360;28;20205;-73
2023/03/25 05:38:12;;;;;;;20.07;11.63;;;8.30;99.90;;;;;;4959989;28;20201;-77
2023/03/25 05:40:39;;;;;;;21.37;11.93;;;8.30;99.90;;;;;;4976074;28;20193;-76
2023/03/25 05:43:06;;;;;;;20.20;11.63;;;8.40;99.90;;;;;;4993294;28;20218;-77
2023/03/25 05:45:37;;;;;;;19.80;11.70;;;8.40;99.90;;;;;;4975873;28;20205;-75
2023/03/25 05:48:04;;;;;;;21.30;12.13;;;8.40;99.90;;;;;;4975909;28;20203;-75
2023/03/25 05:50:31;;;;;;;21.33;12.10;;;8.50;99.90;;;;;;4975732;28;20259;-78
2023/03/25 05:52:58;;;;;;;21.93;11.90;;;8.40;99.90;;;;;;4993221;28;20241;-78
2023/03/25 05:55:27;;;;;;;18.47;11.53;;;8.40;99.90;;;;;;4992884;28;20200;-75
2023/03/25 05:57:55;;;;;;;20.30;11.67;;;8.50;99.90;;;;;;4975440;28;20207;-78
2023/03/25 06:00:32;;;;;;;20.73;11.80;;;8.50;99.90;;;;;;4975741;28;20693;-76
2023/03/25 06:03:08;;;;;;;20.40;12.03;;;8.60;99.90;;;;;;4975669;28;20196;-79
2023/03/25 06:05:38;;;;;;;20.73;11.67;;;8.60;99.90;;;;;;4975385;28;20741;-75
2023/03/25 06:08:06;;;;;;;19.97;12.10;;;8.60;99.90;;;;;;4975561;28;20212;-75
2023/03/25 06:10:33;;;;;;;18.77;11.47;;;8.60;99.90;;;;;;4975435;28;20257;-74
2023/03/25 06:13:00;;;;;;;21.97;12.00;;;8.60;99.90;;;;;;4991898;28;20228;-74
2023/03/25 06:15:32;;;;;;;22.80;11.60;;;8.70;99.90;;;;;;4975582;28;20201;-73
2023/03/25 06:17:59;;;;;;;20.20;11.47;;;8.70;99.90;;;;;;4975338;28;20207;-74
2023/03/25 06:20:26;;;;;;;20.20;11.40;;;8.70;99.90;;;;;;4975482;28;20210;-74
2023/03/25 06:22:53;;;;;;;18.47;11.67;;;8.70;99.90;;;;;;4992891;28;20206;-75
2023/03/25 06:25:20;;;;;;;18.40;11.23;;;8.80;99.90;;;;;;4975346;28;20201;-74
2023/03/25 06:27:49;;;;;;;21.43;11.97;;;8.90;99.90;;;;;;4991646;28;20211;-73
2023/03/25 06:30:20;;;;;;;17.30;11.27;;;8.90;99.90;;;;;;4995615;28;20185;-74
2023/03/25 06:32:49;;;;;;;18.27;10.77;;;9.00;99.90;;;;;;4996927;28;20564;-74
2023/03/25 06:35:18;;;;;;;19.50;11.50;;;9.10;99.90;;;;;;4979281;28;20646;-74
2023/03/25 06:37:48;;;;;;;20.47;11.53;;;9.20;99.90;;;;;;4996689;28;20188;-75
2023/03/25 06:40:15;;;;;;;18.30;10.80;;;9.20;99.90;;;;;;4996918;28;20228;-75
2023/03/25 06:42:45;;;;;;;20.57;11.30;;;9.30;99.90;;;;;;4996846;28;20228;-75
2023/03/25 06:45:12;;;;;;;18.50;11.23;;;9.40;99.90;;;;;;4979366;28;20296;-75
2023/03/25 06:47:40;;;;;;;18.00;10.50;;;9.40;99.90;;;;;;4995220;28;20189;-74
2023/03/25 06:50:07;;;;;;;16.43;10.63;;;9.50;99.90;;;;;;4979107;28;20195;-75
2023/03/25 06:52:34;;;;;;;20.00;11.20;;;9.50;99.90;;;;;;4978888;28;20221;-77
2023/03/25 06:55:02;;;;;;;17.40;10.73;;;9.50;99.90;;;;;;4996713;28;20219;-73
2023/03/25 06:57:29;;;;;;;20.20;10.70;;;9.50;99.90;;;;;;4995075;28;20200;-74
2023/03/25 06:59:56;;;;;;;21.77;11.70;;;9.60;99.90;;;;;;4996365;28;20197;-73
2023/03/25 07:02:22;;;;;;;18.60;11.53;;;9.70;99.90;;;;;;4978887;28;20189;-74
2023/03/25 07:04:49;;;;;;;20.93;11.60;;;9.70;99.90;;;;;;4978737;28;20192;-75
2023/03/25 07:07:16;;;;;;;20.10;11.80;;;9.70;99.90;;;;;;4996117;28;20237;-76
2023/03/25 07:09:44;;;;;;;20.80;11.63;;;9.80;99.90;;;;;;4978639;28;20240;-74
2023/03/25 07:12:11;;;;;;;19.80;10.87;;;9.80;99.90;;;;;;4978296;28;20228;-74
2023/03/25 07:14:38;;;;;;;17.47;10.23;;;9.90;99.90;;;;;;4978689;28;20677;-73
2023/03/25 07:17:05;;;;;;;16.07;10.27;;;10.00;99.90;;;;;;4994896;28;20291;-74
2023/03/25 07:19:32;;;;;;;16.23;10.30;;;10.00;99.90;;;;;;4978624;28;20197;-73
2023/03/25 07:21:58;;;;;;;16.53;9.83;;;10.00;99.90;;;;;;4996009;28;20204;-75
2023/03/25 07:24:25;;;;;;;17.97;10.37;;;10.10;99.90;;;;;;4995923;28;20197;-81
2023/03/25 07:26:52;;;;;;;14.93;9.03;;;10.10;99.90;;;;;;4996153;28;20898;-81
2023/03/25 07:29:19;;;;;;;18.20;10.70;;;10.10;99.90;;;;;;4978551;28;20200;-76
2023/03/25 07:31:47;;;;;;;16.90;9.13;;;10.20;99.90;;;;;;4995788;28;20191;-79
2023/03/25 07:34:14;;;;;;;15.80;9.43;;;10.10;99.90;;;;;;4978148;28;20220;-77
2023/03/25 07:36:41;;;;;;;16.50;9.50;;;10.20;99.90;;;;;;4995771;28;20534;-77
2023/03/25 07:39:07;;;;;;;14.77;9.10;;;10.40;99.90;;;;;;4962003;28;20201;-80
2023/03/25 07:41:34;;;;;;;16.10;9.33;;;10.40;99.90;;;;;;4993507;28;20563;-77
2023/03/25 07:44:04;;;;;;;17.27;9.53;;;10.40;99.90;;;;;;4978299;28;20255;-79
2023/03/25 07:46:30;;;;;;;16.10;8.73;;;10.40;99.90;;;;;;4995538;28;20542;-78
2023/03/25 07:48:57;;;;;;;15.93;8.63;;;10.40;99.90;;;;;;4994461;28;20208;-79
2023/03/25 07:51:24;;;;;;;15.13;9.07;;;10.50;99.90;;;;;;4978062;28;20185;-79
2023/03/25 07:53:51;;;;;;;15.00;8.70;;;10.60;99.90;;;;;;4995631;28;20209;-76
2023/03/25 07:56:18;;;;;;;18.20;8.43;;;10.70;99.90;;;;;;4995814;28;20559;-74
2023/03/25 07:58:45;;;;;;;16.57;8.83;;;10.70;99.90;;;;;;4978342;28;20639;-81
2023/03/25 08:01:12;;;;;;;12.80;8.27;;;10.80;99.90;;;;;;4978935;28;20201;-78
2023/03/25 08:03:39;;;;;;;15.57;8.60;;;11.00;99.90;;;;;;4995982;28;20197;-79
2023/03/25 08:06:07;;;;;;;13.20;7.70;;;11.10;99.90;;;;;;4994824;28;20279;-79
2023/03/25 08:08:34;;;;;;;17.17;8.90;;;11.20;99.90;;;;;;4978085;28;20678;-82
2023/03/25 08:11:01;;;;;;;13.93;8.07;;;11.30;99.90;;;;;;4977785;28;20255;-82
2023/03/25 08:13:28;;;;;;;13.57;8.10;;;11.30;99.90;;;;;;4977303;28;20233;-79
2023/03/25 08:15:55;;;;;;;13.33;7.73;;;11.20;99.90;;;;;;4977595;28;20204;-77
2023/03/25 08:18:22;;;;;;;13.40;8.20;;;11.20;99.90;;;;;;4993562;28;20659;-83
2023/03/25 08:20:52;;;;;;;13.17;8.10;;;11.10;99.90;;;;;;4977333;28;20193;-81
2023/03/25 08:23:21;;;;;;;13.83;8.13;;;11.30;99.90;;;;;;4995103;28;20215;-76
2023/03/25 08:25:49;;;;;;;14.67;8.17;;;11.30;99.90;;;;;;4977688;28;20303;-82
2023/03/25 08:28:22;;;;;;;14.73;7.90;;;11.60;99.90;;;;;;4977518;28;20617;-79
2023/03/25 08:30:53;;;;;;;12.37;7.00;;;12.10;99.90;;;;;;4977480;28;20208;-79
2023/03/25 08:33:25;;;;;;;12.93;6.97;;;12.70;99.90;;;;;;4976895;28;20587;-75
2023/03/25 08:35:55;;;;;;;11.57;7.20;;;13.30;99.90;;;;;;4994796;28;20197;-81
2023/03/25 08:38:24;;;;;;;12.43;6.67;;;13.70;99.90;;;;;;4994745;28;20201;-79
2023/03/25 08:40:51;;;;;;;11.70;6.53;;;13.90;99.90;;;;;;4994512;28;20292;-75
2023/03/25 08:43:18;;;;;;;11.77;6.60;;;13.80;99.90;;;;;;4977227;28;20307;-74
2023/03/25 08:45:45;;;;;;;10.60;6.20;;;14.40;99.90;;;;;;4977078;28;20232;-77
2023/03/25 08:48:12;;;;;;;11.07;6.40;;;14.60;99.90;;;;;;4976730;28;20207;-77
2023/03/25 08:50:39;;;;;;;12.77;6.17;;;14.80;99.90;;;;;;4976910;28;20208;-78
2023/03/25 08:53:06;;;;;;;9.97;5.60;;;15.20;99.90;;;;;;4994205;28;20251;-72
2023/03/25 08:55:33;;;;;;;13.63;5.67;;;15.40;99.90;;;;;;4977102;28;20194;-78
2023/03/25 08:58:04;;;;;;;10.37;5.17;;;15.40;99.90;;;;;;4994161;28;20558;-73
2023/03/25 09:00:33;;;;;;;9.97;5.40;;;15.50;99.90;;;;;;4976748;28;20235;-77
2023/03/25 09:03:01;;;;;;;8.53;4.90;;;15.60;99.90;;;;;;4976176;28;20295;-79
2023/03/25 09:05:29;;;;;;;9.43;5.10;;;15.80;99.90;;;;;;4976695;28;20204;-82
2023/03/25 09:07:56;;;;;;;8.07;4.93;;;15.90;99.90;;;;;;4993934;28;20638;-78
2023/03/25 09:10:23;;;;;;;10.30;4.53;;;16.10;99.90;;;;;;4976571;28;20220;-80
2023/03/25 09:12:51;;;;;;;10.67;5.00;;;16.20;99.90;;;;;;4993694;28;20226;-77
2023/03/25 09:15:20;;;;;;;12.00;4.80;;;16.10;99.90;;;;;;4993735;28;20185;-78
2023/03/25 09:17:47;;;;;;;9.00;4.30;;;16.40;99.90;;;;;;4993646;28;20189;-79
2023/03/25 09:20:15;;;;;;;7.67;4.43;;;16.70;99.90;;;;;;4976636;28;20197;-80
2023/03/25 09:22:51;;;;;;;8.90;4.70;;;16.70;99.90;;;;;;4993760;28;20192;-79
2023/03/25 09:25:18;;;;;;;9.10;4.37;;;17.10;99.90;;;;;;4976373;28;20283;-80
2023/03/25 09:27:45;;;;;;;8.67;4.27;;;17.40;99.90;;;;;;4975821;28;20200;-78
2023/03/25 09:30:12;;;;;;;8.17;4.40;;;17.50;99.90;;;;;;4992213;28;20539;-82
2023/03/25 09:32:39;;;;;;;8.30;4.07;;;17.50;99.90;;;;;;4975894;28;20211;-79
2023/03/25 09:35:07;;;;;;;7.93;4.00;;;17.20;99.90;;;;;;4993248;28;20295;-79
2023/03/25 09:37:35;;;;;;;7.87;4.37;;;17.50;99.90;;;;;;4976357;28;20295;-79
2023/03/25 09:40:04;;;;;;;7.80;4.40;;;17.20;99.90;;;;;;4975912;28;20193;-78
2023/03/25 09:43:02;;;;;;;7.50;3.90;;;17.50;99.90;;;;;;4992862;28;20228;-78
2023/03/25 09:45:42;;;;;;;8.60;4.40;;;17.60;99.90;;;;;;4993210;28;20193;-77
2023/03/25 09:48:21;;;;;;;9.03;3.80;;;17.50;99.90;;;;;;4993116;28;20197;-77
2023/03/25 09:50:49;;;;;;;8.13;4.27;;;17.20;99.90;;;;;;4975697;28;20201;-77
2023/03/25 09:53:58;;;;;;;8.30;4.27;;;17.10;99.90;;;;;;4989759;28;20613;-78
2023/03/25 09:56:28;;;;;;;8.00;4.33;;;16.70;99.90;;;;;;4975281;28;20201;-76
2023/03/25 09:59:04;;;;;;;9.03;4.37;;;16.40;99.90;;;;;;4991471;28;20291;-79
2023/03/25 10:01:36;;;;;;;7.20;4.30;;;16.10;99.90;;;;;;4975910;28;20271;-81
2023/03/25 10:04:03;;;;;;;9.50;4.00;;;15.90;99.90;;;;;;4992599;28;20193;-81
2023/03/25 10:06:36;;;;;;;7.13;4.50;;;16.00;99.90;;;;;;4975556;28;20232;-80
2023/03/25 10:09:21;;;;;;;7.57;4.10;;;16.20;99.90;;;;;;4975637;28;20205;-78
2023/03/25 10:12:10;;;;;;;6.37;3.37;;;15.90;99.90;;;;;;4959935;28;20759;-80
2023/03/25 10:15:03;;;;;;;6.43;3.80;;;16.00;99.90;;;;;;4959722;28;20217;-77
2023/03/25 10:17:57;;;;;;;7.47;3.93;;;16.40;99.90;;;;;;4975333;28;20592;-80
2023/03/25 10:21:15;;;;;;;8.80;3.70;;;16.80;99.90;;;;;;4975639;28;20201;-78
2023/03/25 10:23:45;;;;;;;7.70;3.77;;;17.10;99.90;;;;;;4931057;28;20213;-83
2023/03/25 10:26:26;;;;;;;6.03;3.67;;;17.10;99.90;;;;;;4916771;29;20221;-79
2023/03/25 10:29:11;;;;;;;7.33;4.50;;;17.30;99.90;;;;;;4932537;29;20205;-79
2023/03/25 10:31:56;;;;;;;6.93;4.17;;;17.10;99.90;;;;;;4917976;29;20649;-78
2023/03/25 10:34:33;;;;;;;7.10;3.70;;;16.90;99.90;;;;;;4932544;29;20341;-78
2023/03/25 10:37:07;;;;;;;8.00;3.93;;;17.00;99.90;;;;;;4932441;29;20654;-79
2023/03/25 10:39:38;;;;;;;7.07;4.00;;;17.10;99.90;;;;;;4932681;29;20281;-78
2023/03/25 10:42:33;;;;;;;8.80;4.33;;;17.80;99.90;;;;;;4930624;29;20227;-77
2023/03/25 10:45:01;;;;;;;7.63;4.33;;;18.50;99.90;;;;;;4932407;29;20207;-82
2023/03/25 10:47:35;;;;;;;8.83;4.10;;;19.30;99.90;;;;;;4932404;29;20668;-79
2023/03/25 10:50:03;;;;;;;6.93;4.10;;;19.20;99.90;;;;;;4932477;29;20282;-78
2023/03/25 10:52:31;;;;;;;7.57;4.30;;;18.90;99.90;;;;;;4916874;29;20218;-79
2023/03/25 10:54:58;;;;;;;9.93;4.47;;;18.90;99.90;;;;;;4932637;29;20836;-77
2023/03/25 10:57:30;;;;;;;6.63;4.10;;;19.40;99.90;;;;;;4932939;29;20644;-76
2023/03/25 11:00:18;;;;;;;8.43;3.90;;;19.90;99.90;;;;;;4958011;28;20643;-80
2023/03/25 11:02:48;;;;;;;7.03;3.83;;;20.50;99.90;;;;;;4992646;28;20248;-75
2023/03/25 11:05:19;;;;;;;5.47;3.40;;;20.40;99.90;;;;;;4991279;28;20197;-73
2023/03/25 11:07:54;;;;;;;5.13;3.63;;;20.20;99.90;;;;;;4959235;28;20217;-75
2023/03/25 11:10:27;;;;;;;6.73;3.50;;;19.20;99.90;;;;;;4975077;28;20665;-74
2023/03/25 11:12:57;;;;;;;7.57;3.30;;;19.00;99.90;;;;;;4975073;28;20221;-78
2023/03/25 11:15:29;;;;;;;6.03;3.10;;;18.50;99.90;;;;;;4975017;28;20217;-79
2023/03/25 11:18:01;;;;;;;6.83;2.80;;;18.00;99.90;;;;;;4995842;28;20219;-81
2023/03/25 11:20:34;;;;;;;4.57;2.63;;;17.80;99.90;;;;;;4979264;28;20592;-76
2023/03/25 11:23:06;;;;;;;4.93;2.60;;;18.10;99.90;;;;;;4979097;28;20185;-80
2023/03/25 11:25:40;;;;;;;4.17;2.40;;;18.60;99.90;;;;;;4978550;28;20247;-77
2023/03/25 11:28:34;;;;;;;6.17;3.00;;;19.20;99.90;;;;;;4978336;28;20604;-76
2023/03/25 11:31:15;;;;;;;6.83;3.00;;;19.30;99.90;;;;;;4978200;28;20240;-77
2023/03/25 11:33:59;;;;;;;4.83;2.60;;;18.60;99.90;;;;;;4995895;28;20299;-77
2023/03/25 11:36:39;;;;;;;7.20;2.90;;;18.00;99.90;;;;;;4995419;28;20275;-78
2023/03/25 11:39:22;;;;;;;5.37;2.80;;;18.40;99.90;;;;;;4995773;28;20284;-76
2023/03/25 11:41:51;;;;;;;4.67;2.70;;;18.80;99.90;;;;;;4995476;28;20203;-78
2023/03/25 11:44:29;;;;;;;5.87;2.90;;;18.40;99.90;;;;;;4978168;28;20642;-77
2023/03/25 11:47:00;;;;;;;4.57;2.73;;;18.10;99.90;;;;;;4995426;28;20189;-77
2023/03/25 11:49:33;;;;;;;10.03;3.17;;;17.90;99.90;;;;;;4995718;28;20192;-78
2023/03/25 11:52:09;;;;;;;5.10;2.40;;;17.10;99.90;;;;;;4978023;28;20197;-78
2023/03/25 11:54:36;;;;;;;6.37;3.07;;;17.00;99.90;;;;;;4995271;28;20267;-78
2023/03/25 11:57:09;;;;;;;5.83;2.93;;;16.60;99.90;;;;;;4977954;28;20227;-74
2023/03/25 11:59:43;;;;;;;6.63;2.50;;;16.60;99.90;;;;;;4996011;28;20555;-75
2023/03/25 12:02:30;;;;;;;6.07;3.00;;;16.50;99.90;;;;;;4977924;28;20217;-75
2023/03/25 12:05:03;;;;;;;5.67;2.90;;;16.40;99.90;;;;;;4977588;28;20288;-74
2023/03/25 12:07:44;;;;;;;4.10;2.77;;;16.30;99.90;;;;;;4993712;28;20245;-79
2023/03/25 12:10:30;;;;;;;8.03;2.80;;;16.10;99.90;;;;;;4995134;28;20192;-79
2023/03/25 12:13:20;;;;;;;6.00;2.93;;;15.80;99.90;;;;;;4960504;28;20431;-83
2023/03/25 12:16:06;;;;;;;7.67;3.37;;;15.80;99.90;;;;;;4973231;28;20192;-81
2023/03/25 12:18:53;;;;;;;9.60;3.23;;;15.50;99.90;;;;;;4994911;28;20616;-75
2023/03/25 12:21:37;;;;;;;7.03;3.37;;;15.30;99.90;;;;;;4977814;28;20199;-76
2023/03/25 12:24:38;;;;;;;7.43;3.17;;;15.40;99.90;;;;;;4958231;28;20275;-76
2023/03/25 12:27:13;;;;;;;8.77;3.60;;;15.60;99.90;;;;;;4957734;28;20209;-78
2023/03/25 12:30:02;;;;;;;6.07;3.17;;;15.80;99.90;;;;;;4957972;28;20262;-78
2023/03/25 12:32:47;;;;;;;4.87;2.50;;;16.00;99.90;;;;;;4957988;28;20216;-80
2023/03/25 12:35:27;;;;;;;5.47;3.00;;;16.00;99.90;;;;;;4959852;28;20235;-76
2023/03/25 12:38:15;;;;;;;6.87;2.77;;;15.90;99.90;;;;;;4975200;28;20563;-77
2023/03/25 12:40:58;;;;;;;5.83;2.80;;;15.90;99.90;;;;;;4976151;28;20193;-79
2023/03/25 12:44:04;;;;;;;4.40;2.00;;;15.60;99.90;;;;;;4975237;28;20256;-76
2023/03/25 12:46:55;;;;;;;5.07;2.00;;;15.40;99.90;;;;;;4899431;29;20565;-78
2023/03/25 12:49:46;;;;;;;3.77;1.70;;;15.10;99.90;;;;;;4915386;29;20651;-78
2023/03/25 12:52:35;;;;;;;5.10;1.97;;;15.20;99.90;;;;;;4899995;29;20364;-74
2023/03/25 12:55:34;;;;;;;4.83;2.10;;;15.30;99.90;;;;;;4915042;29;20720;-74
2023/03/25 12:58:36;;;;;;;6.53;2.70;;;15.50;99.90;;;;;;4898990;29;20205;-76
2023/03/25 13:01:30;;;;;;;5.20;2.60;;;15.60;99.90;;;;;;4915266;29;20319;-76
2023/03/25 13:04:19;;;;;;;4.97;2.50;;;15.90;99.90;;;;;;4915623;29;20231;-78
2023/03/25 13:06:58;;;;;;;4.07;2.77;;;16.80;99.90;;;;;;4914678;29;20246;-81
2023/03/25 13:09:35;;;;;;;4.67;2.80;;;17.20;99.90;;;;;;4915035;29;20293;-81
2023/03/25 13:12:13;;;;;;;5.83;2.63;;;17.40;99.90;;;;;;4914950;29;20220;-77
2023/03/25 13:14:57;;;;;;;7.00;2.97;;;17.20;99.90;;;;;;4914833;29;20219;-77
2023/03/25 13:17:31;;;;;;;6.17;2.90;;;17.00;99.90;;;;;;4898667;29;20226;-82